createdAt,value
2019-02-02T00:01:27.073Z,38.43
2019-02-02T00:03:56.257Z,36.23
2019-02-02T00:06:25.784Z,34.70
2019-02-02T00:08:56.388Z,40.77
2019-02-02T00:11:25.287Z,38.60
2019-02-02T00:13:53.989Z,33.03
2019-02-02T00:16:22.923Z,35.70
2019-02-02T00:18:51.839Z,38.30
2019-02-02T00:21:20.534Z,37.77
2019-02-02T00:23:50.548Z,39.50
2019-02-02T00:26:20.836Z,46.03
2019-02-02T00:28:50.875Z,41.33
2019-02-02T00:31:20.995Z,40.17
2019-02-02T00:33:51.324Z,45.47
2019-02-02T00:36:21.463Z,45.33
2019-02-02T00:38:51.778Z,46.10
2019-02-02T00:41:21.998Z,50.13
2019-02-02T00:43:52.227Z,44.80
2019-02-02T00:46:22.466Z,53.80
2019-02-02T00:48:53.163Z,59.70
2019-02-02T00:51:23.049Z,49.30
2019-02-02T00:53:53.391Z,65.10
2019-02-02T00:56:43.667Z,75.13
2019-02-02T00:59:14.158Z,72.47
2019-02-02T01:01:44.342Z,83.77
2019-02-02T01:04:14.731Z,96.57
2019-02-02T01:06:44.558Z,101.40
2019-02-02T01:09:16.497Z,79.70
2019-02-02T01:11:46.483Z,65.13
2019-02-02T01:14:16.853Z,57.17
2019-02-02T01:16:47.847Z,86.90
2019-02-02T01:19:17.824Z,63.63
2019-02-02T01:21:47.743Z,130.87
2019-02-02T01:24:17.291Z,109.13
2019-02-02T01:27:07.398Z,94.37
2019-02-02T01:29:37.671Z,50.50
2019-02-02T01:32:07.586Z,57.77
2019-02-02T01:34:38.128Z,35.20
2019-02-02T01:37:08.005Z,41.73
2019-02-02T01:39:38.800Z,47.03
2019-02-02T01:42:09.038Z,39.07
2019-02-02T01:44:41.886Z,36.60
2019-02-02T01:47:11.878Z,47.50
2019-02-02T01:49:41.921Z,43.17
2019-02-02T01:52:12.422Z,42.80
2019-02-02T01:54:42.681Z,47.90
2019-02-02T01:57:12.385Z,36.47
2019-02-02T01:59:42.884Z,39.10
2019-02-02T02:02:12.899Z,43.23
2019-02-02T02:04:42.961Z,55.40
2019-02-02T02:07:13.176Z,37.83
2019-02-02T02:09:43.616Z,48.40
2019-02-02T02:12:13.366Z,61.67
2019-02-02T02:14:44.675Z,58.57
2019-02-02T02:17:14.818Z,58.07
2019-02-02T02:19:44.993Z,46.27
2019-02-02T02:22:15.641Z,40.03
2019-02-02T02:24:46.041Z,74.07
2019-02-02T02:27:16.294Z,73.80
2019-02-02T02:29:46.193Z,81.87
2019-02-02T02:32:16.061Z,50.10
2019-02-02T02:34:46.793Z,39.67
2019-02-02T02:37:17.464Z,43.60
2019-02-02T02:39:47.471Z,33.03
2019-02-02T02:42:17.953Z,30.63
2019-02-02T02:44:49.220Z,29.07
2019-02-02T02:47:19.436Z,29.93
2019-02-02T02:49:49.373Z,26.37
2019-02-02T02:52:19.920Z,31.47
2019-02-02T02:54:49.644Z,29.30
2019-02-02T02:57:19.619Z,27.23
2019-02-02T02:59:49.873Z,29.33
2019-02-02T03:02:19.425Z,24.50
2019-02-02T03:04:50.242Z,28.03
2019-02-02T03:07:19.957Z,27.00
2019-02-02T03:09:50.402Z,27.30
2019-02-02T03:12:20.447Z,24.10
2019-02-02T03:14:50.871Z,27.03
2019-02-02T03:17:20.821Z,26.80
2019-02-02T03:19:50.635Z,28.53
2019-02-02T03:22:20.569Z,26.00
2019-02-02T03:24:50.916Z,26.97
2019-02-02T03:27:20.771Z,24.43
2019-02-02T03:29:50.935Z,28.10
2019-02-02T03:32:21.382Z,25.70
2019-02-02T03:34:52.019Z,29.30
2019-02-02T03:37:21.946Z,27.20
2019-02-02T03:39:53.538Z,29.33
2019-02-02T03:42:23.149Z,25.60
2019-02-02T03:44:53.488Z,30.00
2019-02-02T03:47:25.311Z,28.33
2019-02-02T03:49:55.745Z,24.07
2019-02-02T03:52:25.731Z,25.57
2019-02-02T03:54:55.807Z,25.70
2019-02-02T03:57:27.291Z,25.40
2019-02-02T03:59:57.562Z,24.80
2019-02-02T04:02:30.717Z,24.47
2019-02-02T04:05:01.533Z,28.30
2019-02-02T04:07:31.836Z,27.97
2019-02-02T04:10:01.746Z,28.20
2019-02-02T04:12:31.761Z,27.53
2019-02-02T04:15:00.749Z,25.53
2019-02-02T04:17:31.419Z,27.03
2019-02-02T04:20:01.617Z,27.10
2019-02-02T04:22:31.029Z,27.00
2019-02-02T04:25:01.062Z,24.07
2019-02-02T04:27:31.702Z,28.13
2019-02-02T04:30:02.108Z,25.27
2019-02-02T04:32:32.337Z,25.43
2019-02-02T04:35:02.803Z,29.17
2019-02-02T04:37:31.820Z,27.73
2019-02-02T04:40:04.480Z,26.23
2019-02-02T04:42:34.728Z,26.40
2019-02-02T04:45:05.869Z,25.10
2019-02-02T04:47:35.842Z,27.83
2019-02-02T04:50:07.811Z,27.23
2019-02-02T04:52:38.363Z,27.00
2019-02-02T04:55:09.760Z,25.17
2019-02-02T04:57:40.168Z,26.17
2019-02-02T05:00:12.991Z,25.00
2019-02-02T05:02:43.324Z,24.20
2019-02-02T05:05:15.417Z,22.40
2019-02-02T05:07:46.656Z,26.07
2019-02-02T05:10:19.494Z,26.60
2019-02-02T05:12:49.387Z,24.37
2019-02-02T05:15:19.694Z,25.10
2019-02-02T05:17:54.742Z,25.77
2019-02-02T05:20:24.972Z,25.80
2019-02-02T05:22:55.684Z,25.50
2019-02-02T05:25:25.937Z,27.27
2019-02-02T05:27:55.790Z,27.80
2019-02-02T05:30:31.450Z,25.20
2019-02-02T05:33:02.113Z,25.40
2019-02-02T05:35:32.644Z,28.17
2019-02-02T05:38:02.806Z,29.10
2019-02-02T05:40:33.200Z,26.77
2019-02-02T05:43:03.529Z,28.03
2019-02-02T05:45:33.974Z,33.20
2019-02-02T05:48:04.034Z,25.77
2019-02-02T05:50:34.694Z,29.40
2019-02-02T05:53:04.832Z,29.80
2019-02-02T05:55:34.705Z,28.70
2019-02-02T05:58:03.074Z,30.43
2019-02-02T06:00:33.584Z,28.60
2019-02-02T06:03:02.559Z,28.60
2019-02-02T06:05:30.901Z,28.60
2019-02-02T06:07:59.274Z,28.90
2019-02-02T06:10:27.849Z,29.90
2019-02-02T06:12:56.215Z,31.80
2019-02-02T06:15:24.739Z,30.67
2019-02-02T06:17:53.877Z,27.90
2019-02-02T06:20:22.306Z,32.73
2019-02-02T06:22:50.663Z,28.27
2019-02-02T06:25:19.678Z,27.57
2019-02-02T06:27:48.015Z,30.70
2019-02-02T06:30:20.877Z,30.73
2019-02-02T06:32:49.573Z,27.83
2019-02-02T06:35:18.873Z,34.03
2019-02-02T06:37:47.291Z,28.80
2019-02-02T06:40:16.627Z,28.40
2019-02-02T06:42:45.103Z,29.10
2019-02-02T06:45:24.667Z,28.87
2019-02-02T06:47:53.147Z,28.57
2019-02-02T06:50:21.588Z,32.73
2019-02-02T06:52:49.998Z,31.83
2019-02-02T06:55:18.490Z,32.50
2019-02-02T06:57:46.886Z,25.73
2019-02-02T07:00:21.030Z,27.07
2019-02-02T07:02:51.083Z,26.87
2019-02-02T07:05:19.449Z,27.40
2019-02-02T07:07:48.101Z,28.63
2019-02-02T07:10:19.063Z,31.10
2019-02-02T07:12:47.465Z,40.97
2019-02-02T07:15:17.925Z,46.93
2019-02-02T07:17:46.508Z,43.30
2019-02-02T07:20:17.238Z,61.73
2019-02-02T07:22:45.709Z,120.33
2019-02-02T07:25:14.440Z,119.57
2019-02-02T07:27:42.894Z,57.33
2019-02-02T07:30:13.913Z,55.90
2019-02-02T07:32:42.983Z,71.63
2019-02-02T07:35:12.424Z,58.97
2019-02-02T07:37:40.885Z,43.43
2019-02-02T07:40:15.041Z,58.53
2019-02-02T07:42:43.440Z,53.00
2019-02-02T07:45:14.862Z,40.40
2019-02-02T07:47:43.231Z,43.13
2019-02-02T07:50:14.239Z,45.67
2019-02-02T07:52:42.828Z,36.47
2019-02-02T07:55:14.225Z,33.13
2019-02-02T07:57:42.744Z,32.63
2019-02-02T08:00:26.041Z,32.77
2019-02-02T08:02:54.421Z,33.83
2019-02-02T08:05:23.068Z,26.87
2019-02-02T08:07:51.361Z,57.73
2019-02-02T08:10:19.794Z,48.30
2019-02-02T08:12:51.373Z,30.90
2019-02-02T08:15:25.233Z,32.87
2019-02-02T08:17:55.219Z,33.07
2019-02-02T08:20:23.753Z,32.83
2019-02-02T08:22:52.271Z,39.43
2019-02-02T08:25:20.759Z,50.10
2019-02-02T08:27:49.192Z,49.87
2019-02-02T08:30:22.618Z,36.87
2019-02-02T08:32:51.074Z,37.30
2019-02-02T08:35:20.364Z,38.90
2019-02-02T08:37:48.919Z,43.60
2019-02-02T08:40:19.171Z,47.27
2019-02-02T08:42:47.687Z,44.57
2019-02-02T08:45:16.528Z,49.33
2019-02-02T08:47:44.939Z,40.23
2019-02-02T08:50:16.050Z,33.70
2019-02-02T08:52:44.533Z,40.53
2019-02-02T08:55:13.299Z,31.37
2019-02-02T08:57:44.025Z,26.23
2019-02-02T09:00:16.211Z,27.80
2019-02-02T09:02:46.799Z,31.03
2019-02-02T09:05:21.729Z,26.13
2019-02-02T09:07:52.019Z,23.37
2019-02-02T09:10:23.077Z,25.53
2019-02-02T09:12:53.801Z,29.20
2019-02-02T09:15:24.043Z,24.47
2019-02-02T09:17:53.916Z,33.00
2019-02-02T09:20:23.840Z,28.43
2019-02-02T09:23:03.969Z,29.30
2019-02-02T09:25:25.512Z,36.33
2019-02-02T09:27:55.881Z,31.27
2019-02-02T09:30:27.978Z,53.90
2019-02-02T09:32:58.500Z,34.87
2019-02-02T09:35:39.822Z,37.53
2019-02-02T09:38:12.135Z,26.77
2019-02-02T09:40:41.907Z,36.50
2019-02-02T09:43:12.188Z,32.40
2019-02-02T09:45:42.251Z,25.63
2019-02-02T09:48:12.487Z,32.07
2019-02-02T09:50:41.315Z,29.20
2019-02-02T09:53:11.482Z,32.10
2019-02-02T09:55:41.050Z,32.67
2019-02-02T09:58:11.248Z,28.30
2019-02-02T10:00:41.414Z,30.10
2019-02-02T10:03:11.592Z,29.60
2019-02-02T10:05:41.164Z,25.40
2019-02-02T10:08:11.018Z,29.90
2019-02-02T10:10:41.042Z,30.47
2019-02-02T10:13:12.052Z,30.83
2019-02-02T10:15:41.925Z,27.37
2019-02-02T10:18:12.323Z,27.83
2019-02-02T10:20:42.657Z,32.30
2019-02-02T10:23:12.890Z,31.83
2019-02-02T10:25:42.904Z,33.00
2019-02-02T10:28:15.561Z,30.10
2019-02-02T10:30:45.428Z,31.30
2019-02-02T10:33:14.336Z,32.73
2019-02-02T10:35:43.236Z,32.30
2019-02-02T10:38:13.067Z,32.10
2019-02-02T10:40:43.363Z,31.90
2019-02-02T10:43:13.554Z,28.90
2019-02-02T10:45:44.521Z,29.03
2019-02-02T10:48:13.326Z,26.97
2019-02-02T10:50:43.630Z,30.20
2019-02-02T10:53:20.438Z,27.63
2019-02-02T10:55:50.151Z,26.20
2019-02-02T10:58:18.825Z,28.67
2019-02-02T11:00:47.919Z,27.63
2019-02-02T11:03:17.130Z,28.40
2019-02-02T11:05:47.503Z,29.43
2019-02-02T11:08:17.048Z,23.77
2019-02-02T11:10:45.706Z,27.67
2019-02-02T11:13:16.400Z,22.33
2019-02-02T11:15:47.172Z,26.30
2019-02-02T11:18:17.345Z,23.83
2019-02-02T11:20:46.054Z,24.73
2019-02-02T11:23:15.180Z,23.70
2019-02-02T11:25:44.030Z,23.90
2019-02-02T11:28:12.752Z,23.07
2019-02-02T11:30:41.546Z,20.67
2019-02-02T11:33:10.106Z,23.97
2019-02-02T11:35:38.678Z,19.20
2019-02-02T11:38:07.244Z,16.90
2019-02-02T11:40:36.277Z,19.27
2019-02-02T11:43:06.647Z,18.90
2019-02-02T11:45:36.527Z,15.13
2019-02-02T11:48:06.378Z,14.33
2019-02-02T11:50:35.997Z,15.60
2019-02-02T11:53:06.208Z,14.73
2019-02-02T11:55:35.664Z,16.10
2019-02-02T11:58:06.221Z,15.07
2019-02-02T12:00:40.989Z,14.80
2019-02-02T12:05:42.617Z,17.00
2019-02-02T12:08:11.029Z,16.00
2019-02-02T12:10:39.525Z,16.23
2019-02-02T12:13:08.016Z,16.20
2019-02-02T12:15:36.760Z,15.50
2019-02-02T12:18:05.298Z,15.73
2019-02-02T12:20:33.925Z,15.77
2019-02-02T12:23:02.334Z,15.00
2019-02-02T12:25:30.904Z,16.97
2019-02-02T12:27:59.291Z,20.27
2019-02-02T12:30:34.597Z,18.77
2019-02-02T12:33:03.746Z,18.27
2019-02-02T12:35:32.556Z,14.87
2019-02-02T12:38:00.969Z,19.50
2019-02-02T12:40:30.157Z,18.60
2019-02-02T12:42:58.553Z,19.87
2019-02-02T12:45:36.205Z,18.17
2019-02-02T12:48:05.148Z,18.10
2019-02-02T12:50:33.561Z,15.90
2019-02-02T12:53:02.166Z,17.70
2019-02-02T12:55:30.728Z,16.97
2019-02-02T12:57:59.130Z,16.60
2019-02-02T13:00:27.686Z,18.30
2019-02-02T13:02:56.064Z,17.43
2019-02-02T13:05:24.928Z,16.20
2019-02-02T13:07:53.301Z,15.70
2019-02-02T13:10:31.676Z,16.30
2019-02-02T13:13:00.073Z,16.03
2019-02-02T13:15:28.621Z,18.00
2019-02-02T13:17:59.732Z,17.40
2019-02-02T13:20:28.312Z,15.43
2019-02-02T13:22:56.731Z,14.53
2019-02-02T13:25:29.884Z,15.50
2019-02-02T13:27:58.219Z,13.20
2019-02-02T13:30:29.016Z,13.03
2019-02-02T13:32:57.468Z,13.00
2019-02-02T13:35:33.890Z,12.27
2019-02-02T13:38:02.299Z,12.50
2019-02-02T13:40:30.684Z,13.03
2019-02-02T13:42:58.956Z,14.10
2019-02-02T13:45:27.486Z,9.90
2019-02-02T13:47:55.828Z,15.70
2019-02-02T13:50:24.702Z,9.70
2019-02-02T13:52:53.290Z,12.17
2019-02-02T13:55:21.772Z,9.83
2019-02-02T13:57:50.268Z,10.90
2019-02-02T14:00:27.321Z,11.47
2019-02-02T14:03:02.850Z,10.77
2019-02-02T14:05:25.941Z,11.63
2019-02-02T14:07:54.553Z,13.50
2019-02-02T14:10:28.473Z,11.33
2019-02-02T14:12:57.034Z,11.70
2019-02-02T14:15:25.930Z,14.10
2019-02-02T14:17:54.359Z,12.57
2019-02-02T14:20:22.834Z,15.70
2019-02-02T14:22:51.236Z,21.10
2019-02-02T14:25:20.205Z,15.70
2019-02-02T14:27:48.731Z,19.97
2019-02-02T14:30:19.082Z,18.30
2019-02-02T14:32:48.845Z,18.37
2019-02-02T14:35:19.252Z,18.53
2019-02-02T14:37:48.610Z,17.60
2019-02-02T14:40:19.331Z,19.83
2019-02-02T14:42:47.984Z,20.33
2019-02-02T14:45:21.200Z,24.43
2019-02-02T14:47:49.675Z,22.67
2019-02-02T14:50:19.781Z,21.20
2019-02-02T14:52:49.473Z,19.80
2019-02-02T14:55:20.461Z,20.40
2019-02-02T14:57:50.485Z,21.00
2019-02-02T15:00:20.946Z,19.43
2019-02-02T15:02:49.392Z,18.23
2019-02-02T15:05:19.688Z,22.07
2019-02-02T15:07:48.094Z,20.43
2019-02-02T15:10:16.702Z,26.90
2019-02-02T15:12:46.677Z,28.93
2019-02-02T15:15:16.583Z,22.63
2019-02-02T15:17:45.058Z,24.43
2019-02-02T15:20:22.722Z,24.90
2019-02-02T15:22:51.186Z,23.63
2019-02-02T15:25:19.740Z,20.17
2019-02-02T15:27:48.297Z,18.77
2019-02-02T15:30:22.496Z,22.67
2019-02-02T15:32:50.907Z,23.73
2019-02-02T15:35:19.285Z,23.73
2019-02-02T15:37:47.804Z,25.47
2019-02-02T15:40:18.444Z,21.10
2019-02-02T15:42:46.933Z,21.30
2019-02-02T15:45:18.230Z,24.57
2019-02-02T15:47:46.886Z,28.33
2019-02-02T15:50:16.854Z,23.60
2019-02-02T15:52:45.813Z,27.97
2019-02-02T15:55:19.609Z,24.30
2019-02-02T15:57:48.267Z,26.93
2019-02-02T16:00:28.590Z,28.57
2019-02-02T16:02:57.187Z,31.40
2019-02-02T16:05:26.332Z,31.93
2019-02-02T16:07:55.313Z,24.20
2019-02-02T16:10:28.908Z,23.80
2019-02-02T16:12:57.389Z,30.70
2019-02-02T16:15:25.758Z,25.03
2019-02-02T16:17:54.286Z,22.77
2019-02-02T16:20:28.565Z,25.40
2019-02-02T16:22:57.074Z,24.27
2019-02-02T16:25:25.393Z,27.50
2019-02-02T16:27:54.458Z,24.53
2019-02-02T16:30:28.043Z,24.23
2019-02-02T16:32:56.616Z,28.93
2019-02-02T16:35:25.553Z,33.43
2019-02-02T16:37:55.648Z,29.30
2019-02-02T16:40:27.252Z,32.63
2019-02-02T16:42:56.073Z,32.63
2019-02-02T16:45:27.244Z,29.00
2019-02-02T16:48:17.150Z,24.17
2019-02-02T16:50:45.590Z,30.47
2019-02-02T16:53:14.031Z,24.40
2019-02-02T16:55:42.407Z,24.37
2019-02-02T16:58:16.582Z,23.47
2019-02-02T17:00:45.038Z,23.63
2019-02-02T17:03:13.533Z,23.63
2019-02-02T17:05:41.849Z,25.23
2019-02-02T17:08:10.494Z,23.57
2019-02-02T17:10:39.024Z,23.23
2019-02-02T17:13:08.205Z,26.50
2019-02-02T17:15:36.623Z,25.33
2019-02-02T17:18:06.010Z,24.27
2019-02-02T17:20:38.124Z,26.27
2019-02-02T17:23:06.943Z,24.10
2019-02-02T17:25:35.424Z,28.23
2019-02-02T17:28:04.439Z,25.33
2019-02-02T17:30:32.924Z,30.33
2019-02-02T17:33:06.829Z,31.13
2019-02-02T17:35:35.334Z,24.97
2019-02-02T17:38:03.732Z,24.03
2019-02-02T17:40:32.244Z,21.93
2019-02-02T17:43:00.607Z,24.83
2019-02-02T17:45:29.109Z,30.57
2019-02-02T17:47:57.561Z,29.20
2019-02-02T17:50:27.538Z,27.13
2019-02-02T17:52:56.251Z,30.63
2019-02-02T17:55:24.873Z,27.07
2019-02-02T17:57:53.694Z,26.73
2019-02-02T18:00:35.930Z,29.27
2019-02-02T18:03:05.736Z,26.70
2019-02-02T18:05:34.618Z,34.57
2019-02-02T18:08:03.476Z,31.50
2019-02-02T18:10:46.075Z,36.10
2019-02-02T18:14:26.826Z,33.43
2019-02-02T18:16:09.101Z,28.33
2019-02-02T18:24:54.796Z,30.57
2019-02-02T18:30:54.686Z,27.43
2019-02-02T18:35:46.846Z,30.20
2019-02-02T18:38:37.374Z,30.07
2019-02-02T18:41:07.870Z,31.37
2019-02-02T18:43:42.575Z,30.70
2019-02-02T18:46:13.733Z,29.40
2019-02-02T18:48:42.674Z,31.23
2019-02-02T18:51:13.641Z,34.73
2019-02-02T18:53:45.476Z,33.40
2019-02-02T18:56:14.559Z,32.17
2019-02-02T18:58:43.259Z,30.47
2019-02-02T19:01:12.152Z,28.93
2019-02-02T19:03:41.528Z,33.87
2019-02-02T19:06:10.475Z,33.43
2019-02-02T19:08:39.332Z,30.70
2019-02-02T19:11:08.300Z,32.27
2019-02-02T19:13:37.412Z,36.47
2019-02-02T19:16:07.987Z,33.60
2019-02-02T19:18:36.965Z,31.97
2019-02-02T19:21:05.862Z,32.60
2019-02-02T19:23:34.734Z,29.37
2019-02-02T19:26:03.617Z,34.60
2019-02-02T19:28:39.407Z,33.00
2019-02-02T19:31:17.223Z,36.00
2019-02-02T19:33:45.636Z,29.70
2019-02-02T19:36:13.985Z,30.77
2019-02-02T19:38:42.493Z,32.93
2019-02-02T19:41:32.611Z,32.40
2019-02-02T19:44:09.472Z,34.50
2019-02-02T19:46:47.770Z,52.07
2019-02-02T19:49:19.073Z,67.90
2019-02-02T19:51:48.218Z,82.73
2019-02-02T19:54:17.876Z,54.97
2019-02-02T19:56:46.365Z,40.10
2019-02-02T19:59:15.902Z,41.20
2019-02-02T20:01:44.312Z,37.37
2019-02-02T20:04:12.776Z,42.20
2019-02-02T20:06:41.147Z,42.47
2019-02-02T20:09:09.767Z,38.23
2019-02-02T20:11:38.235Z,36.07
2019-02-02T20:14:06.839Z,36.20
2019-02-02T20:16:35.434Z,33.70
2019-02-02T20:19:03.959Z,34.67
2019-02-02T20:21:34.128Z,33.30
2019-02-02T20:24:02.542Z,38.60
2019-02-02T20:26:32.837Z,31.83
2019-02-02T20:29:01.625Z,33.97
2019-02-02T20:31:30.430Z,29.70
2019-02-02T20:34:00.577Z,39.20
2019-02-02T20:36:29.141Z,34.13
2019-02-02T20:38:57.620Z,35.60
2019-02-02T20:41:28.334Z,42.47
2019-02-02T20:43:57.200Z,41.57
2019-02-02T20:46:25.655Z,33.57
2019-02-02T20:48:54.230Z,32.30
2019-02-02T20:52:18.051Z,37.60
2019-02-02T20:55:18.247Z,37.00
2019-02-02T20:58:16.761Z,37.90
2019-02-02T21:04:17.315Z,33.30
2019-02-02T21:07:16.023Z,37.80
2019-02-02T21:13:17.514Z,41.00
2019-02-02T21:16:16.435Z,48.97
2019-02-02T21:19:20.464Z,50.43
2019-02-02T21:22:15.990Z,44.30
2019-02-02T21:29:19.834Z,29.63
2019-02-02T21:32:18.051Z,33.70
2019-02-02T21:35:16.834Z,33.57
2019-02-02T21:38:16.138Z,33.20
2019-02-02T21:40:44.649Z,33.03
2019-02-02T21:43:15.993Z,35.37
2019-02-02T21:45:46.047Z,33.50
2019-02-02T21:48:14.545Z,35.80
2019-02-02T21:50:42.850Z,41.20
2019-02-02T21:53:12.762Z,39.80
2019-02-02T21:55:41.058Z,43.47
2019-02-02T21:58:10.649Z,38.53
2019-02-02T22:00:40.962Z,37.70
2019-02-02T22:03:09.444Z,45.27
2019-02-02T22:05:37.985Z,35.67
2019-02-02T22:08:06.904Z,35.33
2019-02-02T22:10:35.274Z,36.20
2019-02-02T22:13:03.805Z,40.20
2019-02-02T22:15:32.217Z,38.77
2019-02-02T22:18:00.517Z,42.00
2019-02-02T22:20:30.008Z,39.13
2019-02-02T22:22:58.383Z,40.67
2019-02-02T22:25:33.732Z,38.40
2019-02-02T22:28:02.128Z,43.97
2019-02-02T22:30:32.915Z,39.80
2019-02-02T22:33:03.011Z,39.97
2019-02-02T22:35:31.473Z,45.30
2019-02-02T22:38:00.097Z,42.60
2019-02-02T22:40:28.906Z,36.43
2019-02-02T22:42:57.279Z,41.87
2019-02-02T22:45:25.835Z,41.40
2019-02-02T22:47:54.156Z,44.90
2019-02-02T22:50:26.870Z,38.27
2019-02-02T22:52:56.575Z,38.80
2019-02-02T22:55:28.101Z,40.97
2019-02-02T22:57:56.600Z,43.63
2019-02-02T23:00:56.650Z,45.00
2019-02-02T23:03:30.968Z,40.33
2019-02-02T23:06:18.810Z,38.80
2019-02-02T23:09:07.089Z,36.60
2019-02-02T23:12:17.821Z,41.53
2019-02-02T23:15:01.203Z,43.83
2019-02-02T23:17:29.612Z,37.20
2019-02-02T23:20:16.531Z,40.13
2019-02-02T23:22:45.131Z,38.67
2019-02-02T23:25:13.582Z,40.20
2019-02-02T23:27:42.010Z,39.63
2019-02-02T23:30:15.428Z,43.13
2019-02-02T23:32:43.770Z,38.03
2019-02-02T23:35:12.229Z,35.67
2019-02-02T23:37:40.563Z,39.87
2019-02-02T23:40:13.119Z,34.20
2019-02-02T23:42:41.566Z,40.10
2019-02-02T23:45:10.450Z,34.90
2019-02-02T23:47:39.484Z,39.70
2019-02-02T23:50:09.699Z,35.97
2019-02-02T23:52:38.012Z,35.50
2019-02-02T23:55:09.058Z,40.47
2019-02-02T23:57:38.355Z,38.90
